sensor_id;sensor_type;location;lat;lon;timestamp;P1;durP1;ratioP1;P2;durP2;ratioP2
70002;SDS011;57341;51.984;5.088;2022-09-09T00:00:23;10.05;;;3.58;;
70002;SDS011;57341;51.984;5.088;2022-09-09T00:02:57;12.50;;;3.38;;
70002;SDS011;57341;51.984;5.088;2022-09-09T00:05:35;11.73;;;3.60;;
70002;SDS011;57341;51.984;5.088;2022-09-09T00:08:17;10.75;;;3.60;;
70002;SDS011;57341;51.984;5.088;2022-09-09T00:10:47;8.35;;;3.40;;
70002;SDS011;57341;51.984;5.088;2022-09-09T00:13:33;10.27;;;3.63;;
70002;SDS011;57341;51.984;5.088;2022-09-09T00:21:17;8.80;;;3.00;;
70002;SDS011;57341;51.984;5.088;2022-09-09T00:23:53;10.95;;;4.03;;
70002;SDS011;57341;51.984;5.088;2022-09-09T00:26:32;12.50;;;4.28;;
70002;SDS011;57341;51.984;5.088;2022-09-09T00:29:12;10.23;;;3.40;;
70002;SDS011;57341;51.984;5.088;2022-09-09T00:31:44;9.98;;;3.15;;
70002;SDS011;57341;51.984;5.088;2022-09-09T00:34:11;7.57;;;2.30;;
70002;SDS011;57341;51.984;5.088;2022-09-09T00:36:45;12.95;;;3.88;;
70002;SDS011;57341;51.984;5.088;2022-09-09T00:39:24;12.07;;;3.92;;
70002;SDS011;57341;51.984;5.088;2022-09-09T00:44:58;12.05;;;3.38;;
70002;SDS011;57341;51.984;5.088;2022-09-09T00:53:34;16.27;;;4.90;;
70002;SDS011;57341;51.984;5.088;2022-09-09T00:56:21;12.30;;;4.53;;
70002;SDS011;57341;51.984;5.088;2022-09-09T00:59:12;10.48;;;3.75;;
70002;SDS011;57341;51.984;5.088;2022-09-09T01:01:54;11.85;;;4.15;;
70002;SDS011;57341;51.984;5.088;2022-09-09T01:04:25;11.32;;;4.63;;
70002;SDS011;57341;51.984;5.088;2022-09-09T01:07:09;9.80;;;4.07;;
70002;SDS011;57341;51.984;5.088;2022-09-09T01:09:58;10.52;;;3.50;;
70002;SDS011;57341;51.984;5.088;2022-09-09T01:13:04;11.98;;;4.35;;
70002;SDS011;57341;51.984;5.088;2022-09-09T01:15:27;13.27;;;5.18;;
70002;SDS011;57341;51.984;5.088;2022-09-09T01:18:06;11.80;;;4.60;;
70002;SDS011;57341;51.984;5.088;2022-09-09T01:20:45;14.32;;;4.63;;
70002;SDS011;57341;51.984;5.088;2022-09-09T01:29:22;14.00;;;5.50;;
70002;SDS011;57341;51.984;5.088;2022-09-09T01:32:00;13.02;;;5.57;;
70002;SDS011;57341;51.984;5.088;2022-09-09T01:34:33;14.45;;;5.65;;
70002;SDS011;57341;51.984;5.088;2022-09-09T01:37:09;18.30;;;5.90;;
70002;SDS011;57341;51.984;5.088;2022-09-09T01:39:39;14.48;;;5.80;;
70002;SDS011;57341;51.984;5.088;2022-09-09T01:42:12;15.50;;;6.28;;
70002;SDS011;57341;51.984;5.088;2022-09-09T01:44:41;17.75;;;6.82;;
70002;SDS011;57341;51.984;5.088;2022-09-09T01:47:08;11.93;;;4.78;;
70002;SDS011;57341;51.984;5.088;2022-09-09T01:52:22;13.77;;;5.15;;
70002;SDS011;57341;51.984;5.088;2022-09-09T01:54:49;17.15;;;7.05;;
70002;SDS011;57341;51.984;5.088;2022-09-09T02:03:00;13.40;;;5.80;;
70002;SDS011;57341;51.984;5.088;2022-09-09T02:08:25;19.25;;;6.30;;
70002;SDS011;57341;51.984;5.088;2022-09-09T02:13:54;15.10;;;5.47;;
70002;SDS011;57341;51.984;5.088;2022-09-09T02:16:28;15.57;;;6.50;;
70002;SDS011;57341;51.984;5.088;2022-09-09T02:19:16;14.65;;;6.35;;
70002;SDS011;57341;51.984;5.088;2022-09-09T02:22:01;15.13;;;6.85;;
70002;SDS011;57341;51.984;5.088;2022-09-09T02:24:31;18.42;;;7.20;;
70002;SDS011;57341;51.984;5.088;2022-09-09T02:27:11;16.02;;;5.85;;
70002;SDS011;57341;51.984;5.088;2022-09-09T02:29:41;17.73;;;6.40;;
70002;SDS011;57341;51.984;5.088;2022-09-09T02:32:11;16.98;;;6.32;;
70002;SDS011;57341;51.984;5.088;2022-09-09T02:34:53;15.48;;;6.82;;
70002;SDS011;57341;51.984;5.088;2022-09-09T02:37:24;16.27;;;6.13;;
70002;SDS011;57341;51.984;5.088;2022-09-09T02:39:55;15.07;;;7.00;;
70002;SDS011;57341;51.984;5.088;2022-09-09T02:42:23;14.20;;;5.82;;
70002;SDS011;57341;51.984;5.088;2022-09-09T02:44:52;15.25;;;5.90;;
70002;SDS011;57341;51.984;5.088;2022-09-09T02:47:24;16.92;;;7.10;;
70002;SDS011;57341;51.984;5.088;2022-09-09T02:55:38;14.50;;;5.57;;
70002;SDS011;57341;51.984;5.088;2022-09-09T02:58:15;16.00;;;6.10;;
70002;SDS011;57341;51.984;5.088;2022-09-09T03:00:52;16.17;;;5.97;;
70002;SDS011;57341;51.984;5.088;2022-09-09T03:03:22;17.67;;;6.88;;
70002;SDS011;57341;51.984;5.088;2022-09-09T03:05:50;12.00;;;3.83;;
70002;SDS011;57341;51.984;5.088;2022-09-09T03:08:17;13.93;;;5.80;;
70002;SDS011;57341;51.984;5.088;2022-09-09T03:10:44;14.93;;;6.05;;
70002;SDS011;57341;51.984;5.088;2022-09-09T03:13:13;18.38;;;6.82;;
70002;SDS011;57341;51.984;5.088;2022-09-09T03:15:41;17.63;;;6.65;;
70002;SDS011;57341;51.984;5.088;2022-09-09T03:18:13;15.65;;;7.05;;
70002;SDS011;57341;51.984;5.088;2022-09-09T03:20:41;18.63;;;7.03;;
70002;SDS011;57341;51.984;5.088;2022-09-09T03:23:09;12.02;;;5.20;;
70002;SDS011;57341;51.984;5.088;2022-09-09T03:25:51;11.45;;;4.63;;
70002;SDS011;57341;51.984;5.088;2022-09-09T03:28:25;17.38;;;6.75;;
70002;SDS011;57341;51.984;5.088;2022-09-09T03:31:03;14.70;;;6.05;;
70002;SDS011;57341;51.984;5.088;2022-09-09T03:33:38;14.20;;;5.97;;
70002;SDS011;57341;51.984;5.088;2022-09-09T03:36:10;13.25;;;5.00;;
70002;SDS011;57341;51.984;5.088;2022-09-09T03:38:37;15.60;;;4.28;;
70002;SDS011;57341;51.984;5.088;2022-09-09T03:41:05;15.10;;;6.75;;
70002;SDS011;57341;51.984;5.088;2022-09-09T03:43:33;15.00;;;6.50;;
70002;SDS011;57341;51.984;5.088;2022-09-09T03:46:00;15.38;;;6.38;;
70002;SDS011;57341;51.984;5.088;2022-09-09T03:48:28;15.30;;;5.65;;
70002;SDS011;57341;51.984;5.088;2022-09-09T03:50:55;17.48;;;6.38;;
70002;SDS011;57341;51.984;5.088;2022-09-09T03:53:24;14.38;;;6.28;;
70002;SDS011;57341;51.984;5.088;2022-09-09T03:55:52;12.77;;;5.15;;
70002;SDS011;57341;51.984;5.088;2022-09-09T03:58:23;17.45;;;7.90;;
70002;SDS011;57341;51.984;5.088;2022-09-09T04:01:25;14.82;;;7.03;;
70002;SDS011;57341;51.984;5.088;2022-09-09T04:03:45;18.48;;;6.97;;
70002;SDS011;57341;51.984;5.088;2022-09-09T04:06:13;16.63;;;7.63;;
70002;SDS011;57341;51.984;5.088;2022-09-09T04:08:43;14.35;;;6.35;;
70002;SDS011;57341;51.984;5.088;2022-09-09T04:11:13;18.85;;;7.40;;
70002;SDS011;57341;51.984;5.088;2022-09-09T04:13:41;18.55;;;7.80;;
70002;SDS011;57341;51.984;5.088;2022-09-09T04:16:11;12.88;;;5.35;;
70002;SDS011;57341;51.984;5.088;2022-09-09T04:18:41;17.20;;;6.40;;
70002;SDS011;57341;51.984;5.088;2022-09-09T04:21:09;15.90;;;7.10;;
70002;SDS011;57341;51.984;5.088;2022-09-09T04:23:36;18.42;;;7.47;;
70002;SDS011;57341;51.984;5.088;2022-09-09T04:26:04;15.13;;;6.28;;
70002;SDS011;57341;51.984;5.088;2022-09-09T04:28:33;14.07;;;6.68;;
70002;SDS011;57341;51.984;5.088;2022-09-09T04:31:09;15.55;;;6.32;;
70002;SDS011;57341;51.984;5.088;2022-09-09T04:33:40;16.17;;;6.35;;
70002;SDS011;57341;51.984;5.088;2022-09-09T04:36:09;13.00;;;4.97;;
70002;SDS011;57341;51.984;5.088;2022-09-09T04:38:36;13.68;;;5.85;;
70002;SDS011;57341;51.984;5.088;2022-09-09T04:41:04;13.30;;;5.13;;
70002;SDS011;57341;51.984;5.088;2022-09-09T04:43:33;14.20;;;6.15;;
70002;SDS011;57341;51.984;5.088;2022-09-09T04:46:03;18.98;;;7.65;;
70002;SDS011;57341;51.984;5.088;2022-09-09T04:48:31;16.85;;;7.00;;
70002;SDS011;57341;51.984;5.088;2022-09-09T04:51:01;13.18;;;5.47;;
70002;SDS011;57341;51.984;5.088;2022-09-09T04:53:31;13.38;;;5.20;;
70002;SDS011;57341;51.984;5.088;2022-09-09T04:56:01;15.15;;;6.32;;
70002;SDS011;57341;51.984;5.088;2022-09-09T04:58:31;14.82;;;6.03;;
70002;SDS011;57341;51.984;5.088;2022-09-09T05:01:08;14.48;;;5.40;;
70002;SDS011;57341;51.984;5.088;2022-09-09T05:03:39;12.25;;;4.72;;
70002;SDS011;57341;51.984;5.088;2022-09-09T05:06:10;16.42;;;5.40;;
70002;SDS011;57341;51.984;5.088;2022-09-09T05:11:16;14.32;;;4.93;;
70002;SDS011;57341;51.984;5.088;2022-09-09T05:13:56;17.63;;;6.68;;
70002;SDS011;57341;51.984;5.088;2022-09-09T05:16:23;15.10;;;5.07;;
70002;SDS011;57341;51.984;5.088;2022-09-09T05:18:50;8.52;;;3.78;;
70002;SDS011;57341;51.984;5.088;2022-09-09T05:21:19;20.58;;;5.90;;
70002;SDS011;57341;51.984;5.088;2022-09-09T05:23:47;19.35;;;6.25;;
70002;SDS011;57341;51.984;5.088;2022-09-09T05:26:15;15.93;;;6.28;;
70002;SDS011;57341;51.984;5.088;2022-09-09T05:28:46;10.90;;;3.67;;
70002;SDS011;57341;51.984;5.088;2022-09-09T05:31:14;16.45;;;5.32;;
70002;SDS011;57341;51.984;5.088;2022-09-09T05:33:44;10.80;;;3.72;;
70002;SDS011;57341;51.984;5.088;2022-09-09T05:36:14;14.27;;;5.22;;
70002;SDS011;57341;51.984;5.088;2022-09-09T05:38:47;14.48;;;5.22;;
70002;SDS011;57341;51.984;5.088;2022-09-09T05:41:16;13.68;;;4.25;;
70002;SDS011;57341;51.984;5.088;2022-09-09T05:43:45;13.18;;;4.45;;
70002;SDS011;57341;51.984;5.088;2022-09-09T05:46:18;15.00;;;4.70;;
70002;SDS011;57341;51.984;5.088;2022-09-09T05:48:50;11.40;;;3.20;;
70002;SDS011;57341;51.984;5.088;2022-09-09T05:51:22;13.27;;;3.70;;
70002;SDS011;57341;51.984;5.088;2022-09-09T05:53:53;14.68;;;3.83;;
70002;SDS011;57341;51.984;5.088;2022-09-09T05:56:23;12.32;;;4.38;;
70002;SDS011;57341;51.984;5.088;2022-09-09T05:58:52;16.52;;;4.93;;
70002;SDS011;57341;51.984;5.088;2022-09-09T06:01:27;11.82;;;4.18;;
70002;SDS011;57341;51.984;5.088;2022-09-09T06:03:57;12.75;;;4.10;;
70002;SDS011;57341;51.984;5.088;2022-09-09T06:06:25;13.60;;;3.90;;
70002;SDS011;57341;51.984;5.088;2022-09-09T06:08:56;15.63;;;4.95;;
70002;SDS011;57341;51.984;5.088;2022-09-09T06:11:29;17.85;;;4.75;;
70002;SDS011;57341;51.984;5.088;2022-09-09T06:13:58;13.68;;;3.72;;
70002;SDS011;57341;51.984;5.088;2022-09-09T06:18:56;12.40;;;3.47;;
70002;SDS011;57341;51.984;5.088;2022-09-09T06:21:26;17.90;;;5.68;;
70002;SDS011;57341;51.984;5.088;2022-09-09T06:23:57;15.88;;;5.25;;
70002;SDS011;57341;51.984;5.088;2022-09-09T06:28:59;10.98;;;4.25;;
70002;SDS011;57341;51.984;5.088;2022-09-09T06:31:28;14.48;;;4.25;;
70002;SDS011;57341;51.984;5.088;2022-09-09T06:34:06;14.05;;;4.35;;
70002;SDS011;57341;51.984;5.088;2022-09-09T06:36:38;14.02;;;4.70;;
70002;SDS011;57341;51.984;5.088;2022-09-09T06:39:06;14.88;;;4.30;;
70002;SDS011;57341;51.984;5.088;2022-09-09T06:41:40;13.23;;;4.75;;
70002;SDS011;57341;51.984;5.088;2022-09-09T06:44:13;15.18;;;5.10;;
70002;SDS011;57341;51.984;5.088;2022-09-09T06:46:41;10.65;;;3.47;;
70002;SDS011;57341;51.984;5.088;2022-09-09T06:49:09;11.23;;;3.63;;
70002;SDS011;57341;51.984;5.088;2022-09-09T06:51:37;8.40;;;2.65;;
70002;SDS011;57341;51.984;5.088;2022-09-09T06:54:11;9.02;;;2.85;;
70002;SDS011;57341;51.984;5.088;2022-09-09T06:56:42;9.68;;;2.83;;
70002;SDS011;57341;51.984;5.088;2022-09-09T06:59:16;10.45;;;3.67;;
70002;SDS011;57341;51.984;5.088;2022-09-09T07:01:44;13.68;;;3.50;;
70002;SDS011;57341;51.984;5.088;2022-09-09T07:04:12;7.45;;;2.33;;
70002;SDS011;57341;51.984;5.088;2022-09-09T07:06:43;14.75;;;4.13;;
70002;SDS011;57341;51.984;5.088;2022-09-09T07:09:16;10.55;;;3.10;;
70002;SDS011;57341;51.984;5.088;2022-09-09T07:11:48;11.00;;;2.95;;
70002;SDS011;57341;51.984;5.088;2022-09-09T07:14:18;13.15;;;3.35;;
70002;SDS011;57341;51.984;5.088;2022-09-09T07:16:50;12.50;;;3.10;;
70002;SDS011;57341;51.984;5.088;2022-09-09T07:19:23;9.85;;;2.78;;
70002;SDS011;57341;51.984;5.088;2022-09-09T07:21:52;9.77;;;3.08;;
70002;SDS011;57341;51.984;5.088;2022-09-09T07:24:21;10.40;;;3.15;;
70002;SDS011;57341;51.984;5.088;2022-09-09T07:26:51;9.80;;;3.25;;
70002;SDS011;57341;51.984;5.088;2022-09-09T07:29:21;11.35;;;2.95;;
70002;SDS011;57341;51.984;5.088;2022-09-09T07:31:49;10.88;;;3.10;;
70002;SDS011;57341;51.984;5.088;2022-09-09T07:34:22;11.05;;;3.08;;
70002;SDS011;57341;51.984;5.088;2022-09-09T07:36:50;12.70;;;3.30;;
70002;SDS011;57341;51.984;5.088;2022-09-09T07:39:20;7.47;;;2.83;;
70002;SDS011;57341;51.984;5.088;2022-09-09T07:41:51;9.50;;;3.25;;
70002;SDS011;57341;51.984;5.088;2022-09-09T07:44:21;13.15;;;3.38;;
70002;SDS011;57341;51.984;5.088;2022-09-09T07:47:01;8.85;;;2.40;;
70002;SDS011;57341;51.984;5.088;2022-09-09T07:49:34;11.50;;;3.17;;
70002;SDS011;57341;51.984;5.088;2022-09-09T07:52:03;10.98;;;3.20;;
70002;SDS011;57341;51.984;5.088;2022-09-09T07:54:31;9.23;;;2.78;;
70002;SDS011;57341;51.984;5.088;2022-09-09T07:57:01;12.10;;;3.70;;
70002;SDS011;57341;51.984;5.088;2022-09-09T07:59:32;6.68;;;2.28;;
70002;SDS011;57341;51.984;5.088;2022-09-09T08:02:00;8.00;;;2.65;;
70002;SDS011;57341;51.984;5.088;2022-09-09T08:04:29;8.38;;;2.78;;
70002;SDS011;57341;51.984;5.088;2022-09-09T08:06:57;9.27;;;3.15;;
70002;SDS011;57341;51.984;5.088;2022-09-09T08:09:27;12.10;;;2.95;;
70002;SDS011;57341;51.984;5.088;2022-09-09T08:12:05;8.45;;;2.80;;
70002;SDS011;57341;51.984;5.088;2022-09-09T08:14:33;10.27;;;2.75;;
70002;SDS011;57341;51.984;5.088;2022-09-09T08:17:01;10.90;;;3.25;;
70002;SDS011;57341;51.984;5.088;2022-09-09T08:19:29;9.40;;;2.47;;
70002;SDS011;57341;51.984;5.088;2022-09-09T08:21:59;8.95;;;2.40;;
70002;SDS011;57341;51.984;5.088;2022-09-09T08:24:29;9.77;;;2.10;;
70002;SDS011;57341;51.984;5.088;2022-09-09T08:26:57;12.05;;;3.05;;
70002;SDS011;57341;51.984;5.088;2022-09-09T08:29:24;11.48;;;2.80;;
70002;SDS011;57341;51.984;5.088;2022-09-09T08:31:53;9.55;;;2.67;;
70002;SDS011;57341;51.984;5.088;2022-09-09T08:34:25;11.02;;;2.92;;
70002;SDS011;57341;51.984;5.088;2022-09-09T08:36:55;12.30;;;2.55;;
70002;SDS011;57341;51.984;5.088;2022-09-09T08:39:28;11.90;;;2.45;;
70002;SDS011;57341;51.984;5.088;2022-09-09T08:50:19;12.80;;;2.90;;
70002;SDS011;57341;51.984;5.088;2022-09-09T08:55:56;13.52;;;3.35;;
70002;SDS011;57341;51.984;5.088;2022-09-09T08:58:43;10.98;;;2.90;;
70002;SDS011;57341;51.984;5.088;2022-09-09T09:01:28;12.48;;;2.70;;
70002;SDS011;57341;51.984;5.088;2022-09-09T09:04:42;9.45;;;2.78;;
70002;SDS011;57341;51.984;5.088;2022-09-09T09:07:59;16.30;;;4.03;;
70002;SDS011;57341;51.984;5.088;2022-09-09T09:10:35;11.10;;;2.55;;
70002;SDS011;57341;51.984;5.088;2022-09-09T09:13:20;11.95;;;3.67;;
70002;SDS011;57341;51.984;5.088;2022-09-09T09:16:06;9.88;;;2.38;;
70002;SDS011;57341;51.984;5.088;2022-09-09T09:18:48;11.50;;;2.92;;
70002;SDS011;57341;51.984;5.088;2022-09-09T09:23:54;9.25;;;2.85;;
70002;SDS011;57341;51.984;5.088;2022-09-09T09:26:29;13.88;;;3.55;;
70002;SDS011;57341;51.984;5.088;2022-09-09T09:28:59;12.43;;;3.03;;
70002;SDS011;57341;51.984;5.088;2022-09-09T09:31:36;8.68;;;3.00;;
70002;SDS011;57341;51.984;5.088;2022-09-09T09:34:03;13.35;;;3.60;;
70002;SDS011;57341;51.984;5.088;2022-09-09T09:36:34;11.55;;;3.30;;
70002;SDS011;57341;51.984;5.088;2022-09-09T09:39:06;12.05;;;3.30;;
70002;SDS011;57341;51.984;5.088;2022-09-09T09:41:56;16.52;;;3.60;;
70002;SDS011;57341;51.984;5.088;2022-09-09T09:44:32;12.98;;;3.60;;
70002;SDS011;57341;51.984;5.088;2022-09-09T09:47:06;10.65;;;2.72;;
70002;SDS011;57341;51.984;5.088;2022-09-09T09:50:00;14.15;;;3.70;;
70002;SDS011;57341;51.984;5.088;2022-09-09T09:52:34;7.72;;;2.65;;
70002;SDS011;57341;51.984;5.088;2022-09-09T09:55:03;9.15;;;2.85;;
70002;SDS011;57341;51.984;5.088;2022-09-09T09:57:40;9.68;;;2.30;;
70002;SDS011;57341;51.984;5.088;2022-09-09T10:00:14;7.35;;;2.30;;
70002;SDS011;57341;51.984;5.088;2022-09-09T10:02:59;10.25;;;3.38;;
70002;SDS011;57341;51.984;5.088;2022-09-09T10:05:30;10.20;;;3.08;;
70002;SDS011;57341;51.984;5.088;2022-09-09T10:08:11;10.30;;;3.08;;
70002;SDS011;57341;51.984;5.088;2022-09-09T10:13:39;10.40;;;2.60;;
70002;SDS011;57341;51.984;5.088;2022-09-09T10:19:00;11.13;;;3.15;;
70002;SDS011;57341;51.984;5.088;2022-09-09T10:21:53;10.90;;;3.90;;
70002;SDS011;57341;51.984;5.088;2022-09-09T10:25:00;7.28;;;2.50;;
70002;SDS011;57341;51.984;5.088;2022-09-09T10:35:33;7.82;;;2.53;;
70002;SDS011;57341;51.984;5.088;2022-09-09T10:46:10;7.75;;;2.50;;
70002;SDS011;57341;51.984;5.088;2022-09-09T10:56:42;7.15;;;2.30;;
70002;SDS011;57341;51.984;5.088;2022-09-09T10:59:18;10.70;;;2.63;;
70002;SDS011;57341;51.984;5.088;2022-09-09T11:02:00;9.90;;;2.88;;
70002;SDS011;57341;51.984;5.088;2022-09-09T11:04:49;9.65;;;2.70;;
70002;SDS011;57341;51.984;5.088;2022-09-09T11:07:24;8.93;;;2.72;;
70002;SDS011;57341;51.984;5.088;2022-09-09T11:10:00;11.60;;;2.45;;
70002;SDS011;57341;51.984;5.088;2022-09-09T11:12:33;7.63;;;2.33;;
70002;SDS011;57341;51.984;5.088;2022-09-09T11:15:06;7.78;;;2.38;;
70002;SDS011;57341;51.984;5.088;2022-09-09T11:17:50;8.77;;;2.53;;
70002;SDS011;57341;51.984;5.088;2022-09-09T11:20:22;9.30;;;2.10;;
70002;SDS011;57341;51.984;5.088;2022-09-09T11:25:44;7.90;;;2.70;;
70002;SDS011;57341;51.984;5.088;2022-09-09T11:28:34;12.52;;;3.28;;
70002;SDS011;57341;51.984;5.088;2022-09-09T11:31:31;11.98;;;3.45;;
70002;SDS011;57341;51.984;5.088;2022-09-09T11:34:08;7.80;;;2.50;;
70002;SDS011;57341;51.984;5.088;2022-09-09T11:39:36;10.65;;;3.35;;
70002;SDS011;57341;51.984;5.088;2022-09-09T11:44:39;10.68;;;3.03;;
70002;SDS011;57341;51.984;5.088;2022-09-09T11:47:24;10.32;;;3.28;;
70002;SDS011;57341;51.984;5.088;2022-09-09T11:52:42;7.55;;;2.72;;
70002;SDS011;57341;51.984;5.088;2022-09-09T11:55:30;9.50;;;2.92;;
70002;SDS011;57341;51.984;5.088;2022-09-09T11:58:03;8.30;;;2.67;;
70002;SDS011;57341;51.984;5.088;2022-09-09T12:00:45;8.93;;;2.55;;
70002;SDS011;57341;51.984;5.088;2022-09-09T12:06:27;6.07;;;2.60;;
70002;SDS011;57341;51.984;5.088;2022-09-09T12:09:06;8.98;;;3.28;;
70002;SDS011;57341;51.984;5.088;2022-09-09T12:12:07;10.75;;;3.42;;
70002;SDS011;57341;51.984;5.088;2022-09-09T12:17:41;8.93;;;2.80;;
70002;SDS011;57341;51.984;5.088;2022-09-09T12:25:48;8.60;;;2.80;;
70002;SDS011;57341;51.984;5.088;2022-09-09T12:28:40;12.25;;;3.67;;
70002;SDS011;57341;51.984;5.088;2022-09-09T12:31:26;7.50;;;2.72;;
70002;SDS011;57341;51.984;5.088;2022-09-09T12:34:15;8.07;;;2.70;;
70002;SDS011;57341;51.984;5.088;2022-09-09T12:37:49;9.45;;;2.90;;
70002;SDS011;57341;51.984;5.088;2022-09-09T12:40:06;8.55;;;3.10;;
70002;SDS011;57341;51.984;5.088;2022-09-09T12:42:54;9.10;;;3.08;;
70002;SDS011;57341;51.984;5.088;2022-09-09T12:45:31;9.48;;;2.58;;
70002;SDS011;57341;51.984;5.088;2022-09-09T12:48:03;8.05;;;2.75;;
70002;SDS011;57341;51.984;5.088;2022-09-09T12:50:33;10.48;;;3.38;;
70002;SDS011;57341;51.984;5.088;2022-09-09T12:53:08;12.40;;;3.58;;
70002;SDS011;57341;51.984;5.088;2022-09-09T12:58:50;10.27;;;3.58;;
70002;SDS011;57341;51.984;5.088;2022-09-09T13:01:24;9.00;;;3.47;;
70002;SDS011;57341;51.984;5.088;2022-09-09T13:04:00;11.50;;;3.03;;
70002;SDS011;57341;51.984;5.088;2022-09-09T13:06:30;9.85;;;3.22;;
70002;SDS011;57341;51.984;5.088;2022-09-09T13:08:59;11.20;;;3.40;;
70002;SDS011;57341;51.984;5.088;2022-09-09T13:11:38;9.98;;;3.63;;
70002;SDS011;57341;51.984;5.088;2022-09-09T13:14:46;10.95;;;4.35;;
70002;SDS011;57341;51.984;5.088;2022-09-09T13:17:19;8.30;;;2.80;;
70002;SDS011;57341;51.984;5.088;2022-09-09T13:19:53;8.80;;;3.10;;
70002;SDS011;57341;51.984;5.088;2022-09-09T13:22:34;8.65;;;3.08;;
70002;SDS011;57341;51.984;5.088;2022-09-09T13:27:38;11.68;;;4.47;;
70002;SDS011;57341;51.984;5.088;2022-09-09T13:33:37;10.90;;;3.83;;
70002;SDS011;57341;51.984;5.088;2022-09-09T13:36:07;8.60;;;2.80;;
70002;SDS011;57341;51.984;5.088;2022-09-09T13:39:13;9.82;;;3.22;;
70002;SDS011;57341;51.984;5.088;2022-09-09T13:41:34;9.43;;;3.35;;
70002;SDS011;57341;51.984;5.088;2022-09-09T13:44:17;12.27;;;3.58;;
70002;SDS011;57341;51.984;5.088;2022-09-09T13:46:59;8.27;;;3.40;;
70002;SDS011;57341;51.984;5.088;2022-09-09T13:49:27;9.85;;;3.72;;
70002;SDS011;57341;51.984;5.088;2022-09-09T13:52:03;8.05;;;3.25;;
70002;SDS011;57341;51.984;5.088;2022-09-09T13:54:33;14.80;;;4.35;;
70002;SDS011;57341;51.984;5.088;2022-09-09T13:57:01;10.82;;;4.22;;
70002;SDS011;57341;51.984;5.088;2022-09-09T13:59:28;8.30;;;3.42;;
70002;SDS011;57341;51.984;5.088;2022-09-09T14:02:15;12.73;;;5.18;;
70002;SDS011;57341;51.984;5.088;2022-09-09T14:04:43;15.68;;;5.50;;
70002;SDS011;57341;51.984;5.088;2022-09-09T14:07:14;14.88;;;5.15;;
70002;SDS011;57341;51.984;5.088;2022-09-09T14:09:43;9.25;;;2.97;;
70002;SDS011;57341;51.984;5.088;2022-09-09T14:12:11;10.68;;;4.13;;
70002;SDS011;57341;51.984;5.088;2022-09-09T14:14:40;11.98;;;4.90;;
70002;SDS011;57341;51.984;5.088;2022-09-09T14:17:08;11.38;;;4.00;;
70002;SDS011;57341;51.984;5.088;2022-09-09T14:19:35;9.13;;;3.75;;
70002;SDS011;57341;51.984;5.088;2022-09-09T14:22:03;6.00;;;2.25;;
70002;SDS011;57341;51.984;5.088;2022-09-09T14:24:30;7.63;;;3.05;;
70002;SDS011;57341;51.984;5.088;2022-09-09T14:26:57;6.97;;;2.70;;
70002;SDS011;57341;51.984;5.088;2022-09-09T14:29:24;5.30;;;2.15;;
70002;SDS011;57341;51.984;5.088;2022-09-09T14:31:53;5.40;;;2.22;;
70002;SDS011;57341;51.984;5.088;2022-09-09T14:34:21;8.65;;;2.20;;
70002;SDS011;57341;51.984;5.088;2022-09-09T14:36:48;7.03;;;2.22;;
70002;SDS011;57341;51.984;5.088;2022-09-09T14:39:16;6.90;;;1.98;;
70002;SDS011;57341;51.984;5.088;2022-09-09T14:41:43;5.97;;;1.90;;
70002;SDS011;57341;51.984;5.088;2022-09-09T14:46:39;4.00;;;1.90;;
70002;SDS011;57341;51.984;5.088;2022-09-09T14:49:08;5.63;;;2.00;;
70002;SDS011;57341;51.984;5.088;2022-09-09T14:51:36;6.95;;;2.15;;
70002;SDS011;57341;51.984;5.088;2022-09-09T14:54:03;5.78;;;2.20;;
70002;SDS011;57341;51.984;5.088;2022-09-09T14:56:33;5.75;;;2.10;;
70002;SDS011;57341;51.984;5.088;2022-09-09T14:59:03;6.40;;;1.77;;
70002;SDS011;57341;51.984;5.088;2022-09-09T15:01:30;2.78;;;1.50;;
70002;SDS011;57341;51.984;5.088;2022-09-09T15:03:59;5.57;;;2.03;;
70002;SDS011;57341;51.984;5.088;2022-09-09T15:06:29;7.57;;;1.98;;
70002;SDS011;57341;51.984;5.088;2022-09-09T15:09:00;5.50;;;1.92;;
70002;SDS011;57341;51.984;5.088;2022-09-09T15:11:28;5.47;;;1.77;;
70002;SDS011;57341;51.984;5.088;2022-09-09T15:13:58;6.57;;;2.45;;
70002;SDS011;57341;51.984;5.088;2022-09-09T15:16:26;6.13;;;2.33;;
70002;SDS011;57341;51.984;5.088;2022-09-09T15:18:55;5.13;;;2.10;;
70002;SDS011;57341;51.984;5.088;2022-09-09T15:21:24;5.55;;;2.20;;
70002;SDS011;57341;51.984;5.088;2022-09-09T15:23:53;9.35;;;2.40;;
70002;SDS011;57341;51.984;5.088;2022-09-09T15:26:20;5.32;;;2.40;;
70002;SDS011;57341;51.984;5.088;2022-09-09T15:28:48;5.78;;;2.20;;
70002;SDS011;57341;51.984;5.088;2022-09-09T15:31:16;6.63;;;2.30;;
70002;SDS011;57341;51.984;5.088;2022-09-09T15:33:48;6.28;;;2.20;;
70002;SDS011;57341;51.984;5.088;2022-09-09T15:36:19;8.55;;;2.50;;
70002;SDS011;57341;51.984;5.088;2022-09-09T15:38:51;5.15;;;1.67;;
70002;SDS011;57341;51.984;5.088;2022-09-09T15:41:19;7.00;;;2.33;;
70002;SDS011;57341;51.984;5.088;2022-09-09T15:43:48;4.75;;;1.88;;
70002;SDS011;57341;51.984;5.088;2022-09-09T15:48:44;6.03;;;2.00;;
70002;SDS011;57341;51.984;5.088;2022-09-09T15:51:14;4.18;;;1.92;;
70002;SDS011;57341;51.984;5.088;2022-09-09T15:54:01;7.93;;;2.97;;
70002;SDS011;57341;51.984;5.088;2022-09-09T15:56:28;5.22;;;2.17;;
70002;SDS011;57341;51.984;5.088;2022-09-09T15:58:59;7.95;;;2.55;;
70002;SDS011;57341;51.984;5.088;2022-09-09T16:01:28;6.47;;;2.17;;
70002;SDS011;57341;51.984;5.088;2022-09-09T16:03:56;7.28;;;2.28;;
70002;SDS011;57341;51.984;5.088;2022-09-09T16:06:25;7.72;;;2.45;;
70002;SDS011;57341;51.984;5.088;2022-09-09T16:11:23;6.63;;;2.08;;
70002;SDS011;57341;51.984;5.088;2022-09-09T16:13:55;6.80;;;2.63;;
70002;SDS011;57341;51.984;5.088;2022-09-09T16:16:23;8.82;;;2.90;;
70002;SDS011;57341;51.984;5.088;2022-09-09T16:18:56;5.05;;;2.25;;
70002;SDS011;57341;51.984;5.088;2022-09-09T16:21:30;7.90;;;2.60;;
70002;SDS011;57341;51.984;5.088;2022-09-09T16:24:02;10.88;;;3.70;;
70002;SDS011;57341;51.984;5.088;2022-09-09T16:26:37;5.07;;;2.40;;
70002;SDS011;57341;51.984;5.088;2022-09-09T16:29:06;8.43;;;3.20;;
70002;SDS011;57341;51.984;5.088;2022-09-09T16:31:34;10.65;;;3.50;;
70002;SDS011;57341;51.984;5.088;2022-09-09T16:34:01;8.00;;;2.83;;
70002;SDS011;57341;51.984;5.088;2022-09-09T16:36:30;8.98;;;2.90;;
70002;SDS011;57341;51.984;5.088;2022-09-09T16:39:05;9.73;;;3.03;;
70002;SDS011;57341;51.984;5.088;2022-09-09T16:41:37;9.43;;;3.92;;
70002;SDS011;57341;51.984;5.088;2022-09-09T16:44:09;9.43;;;2.55;;
70002;SDS011;57341;51.984;5.088;2022-09-09T16:46:38;8.43;;;3.00;;
70002;SDS011;57341;51.984;5.088;2022-09-09T16:49:10;9.00;;;3.22;;
70002;SDS011;57341;51.984;5.088;2022-09-09T16:51:40;10.75;;;3.80;;
70002;SDS011;57341;51.984;5.088;2022-09-09T16:54:13;7.80;;;2.60;;
70002;SDS011;57341;51.984;5.088;2022-09-09T16:56:42;10.05;;;3.50;;
70002;SDS011;57341;51.984;5.088;2022-09-09T16:59:12;6.40;;;2.40;;
70002;SDS011;57341;51.984;5.088;2022-09-09T17:01:40;11.00;;;3.58;;
70002;SDS011;57341;51.984;5.088;2022-09-09T17:04:16;8.32;;;2.80;;
70002;SDS011;57341;51.984;5.088;2022-09-09T17:06:48;8.93;;;2.85;;
70002;SDS011;57341;51.984;5.088;2022-09-09T17:11:44;7.88;;;2.80;;
70002;SDS011;57341;51.984;5.088;2022-09-09T17:14:13;7.95;;;3.17;;
70002;SDS011;57341;51.984;5.088;2022-09-09T17:16:42;9.55;;;2.70;;
70002;SDS011;57341;51.984;5.088;2022-09-09T17:19:09;8.98;;;2.47;;
70002;SDS011;57341;51.984;5.088;2022-09-09T17:21:36;6.13;;;2.28;;
70002;SDS011;57341;51.984;5.088;2022-09-09T17:24:24;6.78;;;2.25;;
70002;SDS011;57341;51.984;5.088;2022-09-09T17:26:53;10.48;;;3.53;;
70002;SDS011;57341;51.984;5.088;2022-09-09T17:29:21;11.00;;;2.90;;